Time;durP1;ratioP1;P1;durP2;ratioP2;P2;SDS_P1;SDS_P2;PMS_P1;PMS_P2;Temp;Humidity;BMP_temperature;BMP_pressure;BME280_temperature;BME280_humidity;BME280_pressure;Samples;Min_cycle;Max_cycle;Signal;HPM_P1;HPM_P2
2022/12/10 00:02:17;;;;;;;12.50;6.60;;;;;;;6.70;84.15;99281.95;24562;1332;3026051;-73
2022/12/10 00:04:46;;;;;;;11.60;7.00;;;;;;;6.34;85.31;99287.11;24557;1324;3054814;-71
2022/12/10 00:07:15;;;;;;;13.30;7.20;;;;;;;6.07;86.54;99293.38;24668;1336;3025128;-70
2022/12/10 00:09:44;;;;;;;12.30;7.00;;;;;;;5.80;87.96;99291.91;24619;1331;3050870;-72
2022/12/10 00:12:13;;;;;;;7.80;4.60;;;;;;;5.69;88.89;99293.44;24595;1331;3026661;-73
2022/12/10 00:14:41;;;;;;;6.30;3.80;;;;;;;6.19;87.97;99283.42;24545;1331;3067156;-71
2022/12/10 00:17:10;;;;;;;8.80;5.30;;;;;;;6.81;85.06;99272.05;24592;1337;3026689;-71
2022/12/10 00:19:39;;;;;;;9.00;5.00;;;;;;;6.64;84.28;99271.27;24569;1324;3051025;-71
2022/12/10 00:22:08;;;;;;;10.70;6.30;;;;;;;6.50;84.81;99272.09;24583;1324;3026453;-72
2022/12/10 00:24:37;;;;;;;12.20;7.40;;;;;;;6.18;86.04;99279.30;24653;1324;3052121;-68
2022/12/10 00:27:10;;;;;;;10.30;5.20;;;;;;;6.00;86.84;99284.63;24573;1331;3027904;-73
2022/12/10 00:29:39;;;;;;;10.00;5.70;;;;;;;5.96;87.37;99289.15;24635;1331;3028448;-69
2022/12/10 00:32:08;;;;;;;7.10;3.70;;;;;;;5.86;87.78;99283.50;24594;1325;3051538;-72
2022/12/10 00:34:37;;;;;;;6.60;4.00;;;;;;;6.36;86.43;99277.99;24557;1327;3026330;-73
2022/12/10 00:37:06;;;;;;;7.90;3.80;;;;;;;6.82;84.28;99263.11;24567;1331;3025962;-74
2022/12/10 00:39:35;;;;;;;10.80;5.40;;;;;;;6.98;83.18;99263.05;24583;1331;3052522;-72
2022/12/10 00:42:04;;;;;;;10.00;5.60;;;;;;;6.89;83.41;99261.55;24562;1332;3026228;-73
2022/12/10 00:44:36;;;;;;;12.50;5.90;;;;;;;6.53;84.36;99272.47;24546;1330;3051275;-70
2022/12/10 00:47:05;;;;;;;11.20;6.40;;;;;;;6.35;85.66;99280.45;24610;1323;3028386;-74
2022/12/10 00:49:34;;;;;;;11.20;6.10;;;;;;;6.14;86.42;99276.90;24519;1334;3052532;-71
2022/12/10 00:52:03;;;;;;;11.50;4.60;;;;;;;5.98;87.38;99278.98;24568;1319;3026208;-72
2022/12/10 00:54:33;;;;;;;11.10;5.40;;;;;;;6.42;86.95;99273.15;24629;1323;3051983;-73
2022/12/10 00:57:02;;;;;;;6.90;3.70;;;;;;;6.59;85.57;99260.52;24592;1322;3028519;-68
2022/12/10 00:59:31;;;;;;;10.00;5.60;;;;;;;6.74;84.89;99261.94;24616;1334;3057601;-69
2022/12/10 01:02:00;;;;;;;9.40;5.30;;;;;;;6.51;85.48;99263.05;24510;1334;3025991;-74
2022/12/10 01:04:30;;;;;;;10.30;5.90;;;;;;;6.32;86.43;99271.04;24529;1326;3050565;-74
2022/12/10 01:06:59;;;;;;;8.20;4.80;;;;;;;6.03;87.56;99275.81;24609;1315;3028441;-73
2022/12/10 01:09:29;;;;;;;10.30;5.90;;;;;;;5.85;88.20;99272.75;24576;1333;3068519;-70
2022/12/10 01:12:01;;;;;;;6.50;3.70;;;;;;;5.69;89.38;99273.81;24611;1324;3026131;-73
2022/12/10 01:14:32;;;;;;;6.00;3.90;;;;;;;6.21;88.24;99267.17;24577;1325;3027286;-72
2022/12/10 01:17:03;;;;;;;9.20;5.00;;;;;;;6.58;85.91;99259.39;24572;1334;3026409;-73
2022/12/10 01:19:33;;;;;;;6.50;4.00;;;;;;;6.55;85.39;99256.38;24694;1334;3026116;-70
2022/12/10 01:22:04;;;;;;;8.90;5.30;;;;;;;6.46;85.82;99264.45;24522;1324;3026738;-70
2022/12/10 01:24:35;;;;;;;9.20;5.30;;;;;;;6.24;86.38;99270.34;24560;1324;3028230;-71
2022/12/10 01:27:04;;;;;;;9.10;5.40;;;;;;;6.12;87.16;99273.54;24565;1323;3026839;-71
2022/12/10 01:29:32;;;;;;;8.30;4.30;;;;;;;6.19;87.35;99273.70;24591;1323;3025844;-71
2022/12/10 01:32:03;;;;;;;4.80;3.10;;;;;;;6.14;87.17;99276.36;24661;1322;3053137;-68
2022/12/10 01:34:32;;;;;;;5.20;3.50;;;;;;;6.63;85.88;99271.51;24639;1330;3027343;-71
2022/12/10 01:37:01;;;;;;;6.50;3.90;;;;;;;6.91;83.59;99266.32;24563;1316;3027228;-71
2022/12/10 01:39:30;;;;;;;8.70;5.30;;;;;;;6.99;83.07;99261.61;24606;1331;3052174;-71
2022/12/10 01:42:01;;;;;;;7.00;4.50;;;;;;;6.79;83.35;99267.25;24621;1327;3028834;-71
2022/12/10 01:44:29;;;;;;;8.80;5.10;;;;;;;6.63;84.01;99269.60;24622;1334;3025947;-70
2022/12/10 01:47:00;;;;;;;7.80;4.70;;;;;;;6.38;84.84;99273.17;24609;1332;3050707;-69
2022/12/10 01:49:34;;;;;;;10.00;4.90;;;;;;;6.22;85.91;99275.48;24524;1334;3028507;-69
2022/12/10 01:52:05;;;;;;;5.90;3.00;;;;;;;6.07;86.84;99276.69;24561;1326;3068730;-71
2022/12/10 01:54:37;;;;;;;6.30;3.90;;;;;;;6.51;85.47;99268.95;24567;1341;3026291;-71
2022/12/10 01:57:12;;;;;;;5.40;3.40;;;;;;;6.85;84.00;99259.84;24568;1324;3025964;-70
2022/12/10 01:59:41;;;;;;;8.00;4.60;;;;;;;6.94;83.22;99259.23;24575;1327;3052072;-69
2022/12/10 02:02:33;;;;;;;7.00;4.30;;;;;;;6.63;83.34;99267.84;24574;1334;3027041;-74
2022/12/10 02:05:09;;;;;;;9.90;5.30;;;;;;;6.33;84.61;99268.55;24547;1337;3052526;-66
2022/12/10 02:08:02;;;;;;;8.20;4.90;;;;;;;5.92;86.09;99266.56;24611;1334;3053180;-67
2022/12/10 02:10:41;;;;;;;9.20;4.80;;;;;;;5.78;87.48;99262.81;24519;1334;3050718;-70
2022/12/10 02:13:30;;;;;;;5.10;3.20;;;;;;;5.72;87.59;99268.45;24561;1327;3068700;-68
2022/12/10 02:16:18;;;;;;;5.60;3.40;;;;;;;6.15;86.87;99258.77;24539;1335;3051646;-74
2022/12/10 02:18:55;;;;;;;6.90;4.00;;;;;;;6.61;84.59;99243.24;24541;1326;3056786;-74
2022/12/10 02:21:35;;;;;;;7.90;4.80;;;;;;;6.50;84.63;99243.72;24593;1331;3052853;-70
2022/12/10 02:24:07;;;;;;;7.00;4.20;;;;;;;6.30;85.17;99251.63;24523;1329;3053305;-70
2022/12/10 02:26:41;;;;;;;8.60;4.40;;;;;;;6.33;85.80;99250.80;24601;1317;3026674;-70
2022/12/10 02:29:20;;;;;;;7.90;4.30;;;;;;;6.18;85.88;99248.00;24508;1334;3050796;-68
2022/12/10 02:32:10;;;;;;;8.10;5.00;;;;;;;5.83;86.80;99253.37;24562;1318;3049996;-70
2022/12/10 02:34:44;;;;;;;5.90;3.10;;;;;;;5.86;87.65;99247.02;24589;1333;3067748;-71
2022/12/10 02:37:21;;;;;;;6.00;3.10;;;;;;;6.58;85.97;99230.48;24550;1324;3050385;-73
2022/12/10 02:39:54;;;;;;;5.40;3.30;;;;;;;7.02;82.77;99220.86;24475;1329;3056813;-71
2022/12/10 02:42:24;;;;;;;8.90;4.00;;;;;;;7.08;82.51;99217.27;24534;1334;3025857;-69
2022/12/10 02:44:53;;;;;;;6.40;4.00;;;;;;;7.07;82.60;99215.04;24528;1330;3026631;-72
2022/12/10 02:47:23;;;;;;;7.30;4.10;;;;;;;6.95;82.55;99213.92;24499;1334;3056929;-68
2022/12/10 02:49:53;;;;;;;10.50;5.50;;;;;;;6.67;83.26;99221.54;24543;1327;3026215;-71
2022/12/10 02:52:23;;;;;;;7.70;4.30;;;;;;;6.44;84.13;99227.14;24615;1333;3049423;-71
2022/12/10 02:54:53;;;;;;;5.40;3.20;;;;;;;6.19;85.41;99232.87;24543;1324;3026109;-71
2022/12/10 02:57:31;;;;;;;5.80;3.70;;;;;;;6.71;84.65;99223.62;24585;1334;3052596;-68
2022/12/10 03:00:18;;;;;;;7.90;4.50;;;;;;;7.21;82.40;99212.42;24597;1316;3028128;-71
2022/12/10 03:03:30;;;;;;;6.00;4.50;;;;;;;7.14;81.82;99216.60;24560;1333;3050949;-70
2022/12/10 03:06:05;;;;;;;10.20;5.90;;;;;;;6.77;82.67;99225.55;24553;1329;3053289;-70
2022/12/10 03:09:02;;;;;;;10.00;6.10;;;;;;;6.65;83.60;99227.39;24577;1337;3048522;-71
2022/12/10 03:11:31;;;;;;;10.10;5.80;;;;;;;6.47;84.39;99215.36;24562;1324;3069946;-71
2022/12/10 03:14:07;;;;;;;11.80;6.90;;;;;;;6.42;84.67;99221.48;24570;1334;3028323;-69
2022/12/10 03:16:39;;;;;;;7.90;4.10;;;;;;;6.39;84.92;99216.76;24596;1324;3055603;-69
2022/12/10 03:19:13;;;;;;;9.90;5.30;;;;;;;6.87;83.49;99211.66;24585;1324;3026629;-69
2022/12/10 03:21:42;;;;;;;12.20;6.30;;;;;;;7.19;82.02;99200.48;24615;1331;3051608;-70
2022/12/10 03:24:11;;;;;;;13.70;7.40;;;;;;;7.31;81.22;99200.59;24573;1327;3026670;-70
2022/12/10 03:26:41;;;;;;;12.00;6.90;;;;;;;6.98;81.52;99204.52;24542;1331;3053131;-68
2022/12/10 03:29:18;;;;;;;13.50;8.10;;;;;;;6.92;82.23;99207.27;24578;1343;3029232;-71
2022/12/10 03:31:46;;;;;;;12.90;7.30;;;;;;;6.78;82.55;99205.85;24586;1324;3051386;-71
2022/12/10 03:34:15;;;;;;;13.40;7.10;;;;;;;6.62;83.20;99203.16;24574;1326;3025765;-70
2022/12/10 03:36:44;;;;;;;13.20;8.00;;;;;;;6.45;83.95;99201.36;24591;1340;3054626;-73
2022/12/10 03:39:14;;;;;;;9.60;4.80;;;;;;;6.34;84.59;99203.11;24548;1326;3028745;-71
2022/12/10 03:41:42;;;;;;;10.70;6.00;;;;;;;6.85;83.78;99190.91;24611;1333;3051947;-71
2022/12/10 03:44:12;;;;;;;12.80;6.90;;;;;;;7.34;81.32;99192.96;24572;1322;3028108;-68
2022/12/10 03:46:41;;;;;;;15.10;8.60;;;;;;;7.16;80.66;99194.19;24620;1324;3056037;-71
2022/12/10 03:49:09;;;;;;;19.20;8.80;;;;;;;7.00;81.48;99188.42;24584;1331;3026440;-71
2022/12/10 03:51:39;;;;;;;17.50;9.00;;;;;;;6.76;81.88;99192.37;24563;1331;3049834;-68
2022/12/10 03:54:08;;;;;;;14.40;8.30;;;;;;;6.41;83.13;99190.91;24600;1331;3026503;-69
2022/12/10 03:56:37;;;;;;;12.20;7.20;;;;;;;6.16;84.74;99200.81;24552;1331;3067783;-67
2022/12/10 03:59:07;;;;;;;13.80;7.50;;;;;;;6.09;85.06;99196.77;24602;1331;3025520;-72
2022/12/10 04:01:36;;;;;;;10.20;5.50;;;;;;;6.00;85.63;99205.56;24637;1341;3025965;-73
2022/12/10 04:04:05;;;;;;;9.50;4.90;;;;;;;6.45;84.45;99193.34;24612;1331;3068105;-71
2022/12/10 04:06:37;;;;;;;11.80;7.00;;;;;;;7.00;82.08;99186.67;24589;1326;3026682;-72
2022/12/10 04:09:06;;;;;;;14.10;7.80;;;;;;;7.01;81.14;99191.34;24593;1331;3026663;-68
2022/12/10 04:11:36;;;;;;;16.80;9.00;;;;;;;6.68;82.03;99196.93;24647;1330;3026521;-69
2022/12/10 04:16:53;;;;;;;15.70;8.40;;;;;;;6.10;84.64;99211.34;24596;1324;3056241;-69
2022/12/10 04:19:22;;;;;;;19.60;9.20;;;;;;;6.00;85.42;99217.17;24582;1331;3025707;-68
2022/12/10 04:27:36;;;;;;;13.70;7.40;;;;;;;6.46;84.87;99209.64;24639;1340;3051772;-69
2022/12/10 04:30:06;;;;;;;17.50;9.00;;;;;;;6.74;82.71;99208.67;24630;1322;3053092;-69
2022/12/10 04:32:35;;;;;;;20.40;9.20;;;;;;;6.77;81.78;99204.89;24678;1329;3028456;-71
2022/12/10 04:35:05;;;;;;;21.50;10.20;;;;;;;6.47;83.09;99216.77;24607;1324;3026061;-70
2022/12/10 04:37:34;;;;;;;19.80;9.70;;;;;;;6.17;83.82;99211.69;24622;1331;3052684;-72
2022/12/10 04:40:04;;;;;;;18.30;9.30;;;;;;;5.93;84.65;99213.65;24633;1323;3027073;-70
2022/12/10 04:42:33;;;;;;;20.10;9.70;;;;;;;5.83;85.41;99224.71;24619;1336;3054568;-70
2022/12/10 04:45:02;;;;;;;17.70;10.00;;;;;;;5.62;86.20;99231.37;24567;1324;3026323;-70
2022/12/10 04:47:31;;;;;;;13.00;6.60;;;;;;;5.53;87.28;99227.06;24560;1340;3056698;-72
2022/12/10 04:50:01;;;;;;;15.10;7.20;;;;;;;6.13;85.48;99211.39;24637;1324;3026579;-68
2022/12/10 04:52:30;;;;;;;15.20;8.20;;;;;;;6.27;84.01;99201.70;24577;1341;3026313;-71
2022/12/10 04:54:59;;;;;;;15.60;7.20;;;;;;;6.37;83.57;99202.95;24583;1325;3055602;-71
2022/12/10 04:57:28;;;;;;;16.50;8.90;;;;;;;6.25;83.82;99207.52;24591;1340;3026575;-72
2022/12/10 04:59:57;;;;;;;15.40;9.20;;;;;;;5.98;85.07;99217.08;24600;1331;3049197;-71
2022/12/10 05:02:26;;;;;;;21.00;9.40;;;;;;;5.82;85.64;99217.27;23889;1322;4384280;-70
2022/12/10 05:04:55;;;;;;;16.10;8.40;;;;;;;5.45;87.51;99222.73;24609;1331;3068413;-70
2022/12/10 05:07:24;;;;;;;13.90;5.60;;;;;;;5.50;88.07;99219.73;24637;1331;3025864;-72
2022/12/10 05:09:53;;;;;;;10.80;5.70;;;;;;;5.97;86.87;99215.05;24561;1324;3028634;-71
2022/12/10 05:12:22;;;;;;;15.50;6.60;;;;;;;6.34;84.89;99213.15;24604;1331;3068061;-72
2022/12/10 05:14:52;;;;;;;15.00;7.90;;;;;;;6.39;84.02;99213.48;24583;1331;3029137;-69
2022/12/10 05:17:21;;;;;;;16.30;8.60;;;;;;;5.95;85.35;99218.06;24603;1331;3027838;-74
2022/12/10 05:19:50;;;;;;;17.90;8.70;;;;;;;6.08;85.62;99213.32;24627;1331;3067224;-70
2022/12/10 05:25:07;;;;;;;17.90;8.30;;;;;;;5.63;86.99;99225.23;24608;1331;3049506;-71
2022/12/10 05:27:36;;;;;;;11.50;5.70;;;;;;;5.56;87.96;99228.52;24527;1331;3026081;-70
2022/12/10 05:30:06;;;;;;;15.40;6.30;;;;;;;6.00;86.65;99218.35;24578;1323;3051598;-71
2022/12/10 05:32:35;;;;;;;15.40;7.80;;;;;;;6.63;84.44;99206.05;24594;1332;3028500;-70
2022/12/10 05:35:05;;;;;;;18.00;8.70;;;;;;;6.46;83.63;99211.58;24574;1331;3026995;-73
2022/12/10 05:37:35;;;;;;;19.20;10.00;;;;;;;6.14;84.72;99226.09;24595;1340;3026099;-69
2022/12/10 05:40:05;;;;;;;25.90;10.90;;;;;;;5.84;86.38;99237.52;24545;1324;3026986;-71
2022/12/10 05:42:59;;;;;;;18.80;9.60;;;;;;;5.70;87.22;99244.21;24520;1324;3070045;-74
2022/12/10 05:45:28;;;;;;;18.90;9.70;;;;;;;5.32;88.68;99247.59;24701;1331;3025716;-71
2022/12/10 05:47:57;;;;;;;14.00;7.80;;;;;;;5.30;89.76;99238.48;24593;1324;3048263;-71
2022/12/10 05:50:26;;;;;;;17.70;8.60;;;;;;;5.74;88.74;99243.34;24575;1325;3026714;-70
2022/12/10 05:52:55;;;;;;;27.50;13.70;;;;;;;6.17;86.01;99242.84;24595;1340;3053159;-75
2022/12/10 05:55:26;;;;;;;30.00;15.20;;;;;;;6.06;85.76;99242.83;24577;1324;3026233;-68
2022/12/10 05:57:55;;;;;;;35.60;16.90;;;;;;;5.88;86.70;99238.55;24610;1317;3050880;-71
2022/12/10 06:00:24;;;;;;;33.90;16.40;;;;;;;5.68;87.27;99242.76;24601;1340;3028358;-76
2022/12/10 06:02:54;;;;;;;30.50;14.70;;;;;;;5.66;87.88;99236.77;24614;1324;3026742;-74
2022/12/10 06:05:22;;;;;;;32.90;15.90;;;;;;;5.69;87.93;99238.71;24593;1324;3050632;-72
2022/12/10 06:07:52;;;;;;;26.90;12.10;;;;;;;5.46;88.83;99243.68;24561;1323;3028174;-75
2022/12/10 06:10:21;;;;;;;21.20;9.50;;;;;;;5.89;88.84;99240.27;24594;1323;3028463;-74
2022/12/10 06:12:50;;;;;;;21.10;10.90;;;;;;;6.48;86.23;99224.54;24584;1326;3050710;-74
2022/12/10 06:15:44;;;;;;;22.20;11.00;;;;;;;6.29;86.62;99231.48;24629;1331;3052218;-71
2022/12/10 06:18:13;;;;;;;18.70;10.00;;;;;;;6.22;86.99;99228.71;24575;1324;3026357;-73
2022/12/10 06:20:42;;;;;;;17.80;8.70;;;;;;;5.96;88.38;99234.39;24584;1333;3051556;-74
2022/12/10 06:24:13;;;;;;;11.60;5.70;;;;;;;5.81;89.69;99233.81;30858;1328;3012986;-72
2022/12/10 06:26:42;;;;;;;10.80;5.90;;;;;;;6.16;89.01;99229.64;24426;1339;3025770;-73
2022/12/10 06:29:11;;;;;;;9.60;6.10;;;;;;;6.34;88.13;99224.48;24592;1329;3028280;-73
2022/12/10 06:31:41;;;;;;;10.00;5.90;;;;;;;6.41;88.12;99226.78;24523;1339;3050239;-77
2022/12/10 06:34:10;;;;;;;10.20;5.80;;;;;;;6.12;89.34;99235.94;24457;1328;3026341;-71
2022/12/10 06:36:38;;;;;;;11.00;6.90;;;;;;;5.98;90.20;99237.10;23592;1328;3052926;-70
2022/12/10 06:39:07;;;;;;;11.60;6.90;;;;;;;5.85;91.05;99230.87;24594;1326;3052758;-74
2022/12/10 06:41:36;;;;;;;7.30;4.20;;;;;;;5.78;91.85;99228.94;24542;1332;3028753;-73
2022/12/10 06:44:08;;;;;;;10.00;5.20;;;;;;;6.41;91.12;99219.09;24550;1333;3052124;-74
2022/12/10 06:46:39;;;;;;;10.00;5.10;;;;;;;6.82;88.44;99203.20;24502;1339;3028372;-74
2022/12/10 06:49:08;;;;;;;11.60;6.10;;;;;;;6.86;87.61;99202.34;24579;1332;3026350;-73
2022/12/10 06:51:38;;;;;;;9.90;5.70;;;;;;;6.66;88.36;99203.64;24576;1339;3026425;-72
2022/12/10 06:54:08;;;;;;;11.30;6.90;;;;;;;6.42;89.83;99208.14;24566;1334;3052029;-73
2022/12/10 06:56:38;;;;;;;11.80;6.80;;;;;;;6.26;90.51;99215.99;24560;1332;3025860;-70
2022/12/10 06:59:06;;;;;;;9.70;5.30;;;;;;;6.15;91.46;99217.89;24575;1329;3051498;-71
2022/12/10 07:01:37;;;;;;;8.10;4.30;;;;;;;6.42;91.16;99210.55;24536;1331;3026319;-71
2022/12/10 07:04:06;;;;;;;9.60;5.00;;;;;;;6.85;89.39;99203.25;24524;1321;3026548;-73
2022/12/10 07:06:35;;;;;;;10.30;6.40;;;;;;;7.02;88.41;99194.56;24609;1324;3028231;-74
2022/12/10 07:09:04;;;;;;;12.50;7.20;;;;;;;6.74;89.11;99198.39;24578;1333;3052094;-75
2022/12/10 07:11:33;;;;;;;13.60;7.30;;;;;;;6.57;90.37;99200.96;24559;1339;3026044;-73
2022/12/10 07:14:02;;;;;;;15.10;7.80;;;;;;;6.60;90.47;99200.45;24514;1332;3052674;-75
2022/12/10 07:16:55;;;;;;;8.90;4.70;;;;;;;6.56;91.06;99203.80;24537;1326;3053377;-71
2022/12/10 07:19:28;;;;;;;9.80;5.10;;;;;;;7.25;89.25;99191.33;24568;1328;3028519;-73
2022/12/10 07:22:23;;;;;;;11.10;6.50;;;;;;;7.71;86.28;99186.48;24597;1325;3054789;-71
2022/12/10 07:24:52;;;;;;;14.90;7.50;;;;;;;7.72;85.82;99188.36;24565;1334;3026358;-70
2022/12/10 07:27:21;;;;;;;16.00;8.90;;;;;;;7.62;85.33;99183.48;24513;1326;3028190;-71
2022/12/10 07:29:50;;;;;;;23.20;11.20;;;;;;;7.35;86.03;99184.55;24594;1332;3026405;-73
2022/12/10 07:32:19;;;;;;;20.90;9.90;;;;;;;7.23;86.89;99181.30;24540;1332;3048762;-72
2022/12/10 07:34:49;;;;;;;10.20;5.80;;;;;;;6.97;87.92;99182.46;24620;1319;3028669;-73
2022/12/10 07:37:18;;;;;;;13.80;6.20;;;;;;;7.53;87.37;99175.08;24543;1324;3028216;-73
2022/12/10 07:39:47;;;;;;;14.80;7.90;;;;;;;8.04;84.69;99171.50;24578;1332;3048338;-71
2022/12/10 07:42:16;;;;;;;21.40;9.80;;;;;;;8.09;83.65;99174.13;24549;1333;3026314;-71
2022/12/10 07:44:45;;;;;;;24.50;11.60;;;;;;;7.82;83.68;99176.86;24560;1333;3052123;-73
2022/12/10 07:47:14;;;;;;;22.20;10.10;;;;;;;7.40;85.41;99178.20;24567;1332;3026619;-72
2022/12/10 07:50:08;;;;;;;;;;;;;;;7.37;85.57;99165.08;24531;1326;3051326;-70
2022/12/10 07:52:37;;;;;;;15.10;8.10;;;;;;;7.24;85.72;99158.64;24682;1318;3028389;-71
2022/12/10 07:55:06;;;;;;;15.70;6.60;;;;;;;7.07;86.36;99166.29;24617;1333;3053088;-71
2022/12/10 07:57:35;;;;;;;10.70;5.80;;;;;;;7.45;85.95;99159.64;24561;1334;3027393;-72
2022/12/10 08:00:05;;;;;;;13.10;6.30;;;;;;;7.94;83.64;99148.50;24559;1333;3051024;-70
2022/12/10 08:02:41;;;;;;;10.10;6.00;;;;;;;8.04;82.70;99143.56;24567;1325;3053553;-71
2022/12/10 08:05:10;;;;;;;10.00;6.40;;;;;;;7.66;82.91;99144.74;24562;1322;3028090;-72
2022/12/10 08:07:40;;;;;;;10.50;6.20;;;;;;;7.60;83.64;99134.25;24571;1333;3052568;-72
2022/12/10 08:10:09;;;;;;;10.40;6.10;;;;;;;7.37;84.01;99132.31;24586;1334;3028555;-73
2022/12/10 08:13:04;;;;;;;9.40;5.90;;;;;;;7.13;84.97;99126.94;24491;1340;3053091;-71
2022/12/10 08:15:35;;;;;;;7.30;3.50;;;;;;;7.03;85.53;99118.96;24605;1333;3026169;-72
2022/12/10 08:18:04;;;;;;;6.80;3.90;;;;;;;7.51;84.24;99109.62;24552;1333;3028308;-72
2022/12/10 08:20:35;;;;;;;6.90;4.00;;;;;;;8.13;81.98;99099.27;24591;1343;3050633;-73
2022/12/10 08:23:04;;;;;;;8.10;5.30;;;;;;;8.25;81.02;99097.71;24526;1333;3026093;-73
2022/12/10 08:25:33;;;;;;;13.60;5.20;;;;;;;8.12;81.04;99087.81;24566;1326;3026363;-75
2022/12/10 08:28:03;;;;;;;9.00;5.00;;;;;;;7.74;81.72;99089.55;24504;1334;3050136;-73
2022/12/10 08:30:34;;;;;;;8.20;4.50;;;;;;;7.40;83.16;99087.23;24555;1333;3026169;-76
2022/12/10 08:33:03;;;;;;;6.50;3.90;;;;;;;7.28;84.01;99088.02;24709;1326;3028500;-73
2022/12/10 08:35:32;;;;;;;8.90;4.80;;;;;;;7.16;84.78;99081.19;24460;1333;3049874;-73
2022/12/10 08:38:04;;;;;;;4.40;2.90;;;;;;;7.08;85.54;99078.81;24567;1326;3029488;-74
2022/12/10 08:40:33;;;;;;;6.40;3.70;;;;;;;7.60;84.89;99067.34;24599;1324;3028503;-72
2022/12/10 08:43:02;;;;;;;9.40;4.90;;;;;;;8.13;82.67;99052.73;24495;1327;3049530;-73
2022/12/10 08:45:31;;;;;;;11.00;5.90;;;;;;;8.25;81.72;99050.44;24577;1325;3026571;-72
2022/12/10 08:48:00;;;;;;;9.90;5.90;;;;;;;8.02;82.10;99042.71;24500;1333;3052247;-71
2022/12/10 08:50:30;;;;;;;8.20;4.80;;;;;;;7.80;83.32;99040.20;24500;1332;3028711;-70
2022/12/10 08:53:00;;;;;;;9.10;5.40;;;;;;;7.52;84.87;99039.89;24533;1333;3025694;-72
2022/12/10 08:55:29;;;;;;;14.50;5.90;;;;;;;7.38;85.81;99039.21;24535;1332;3026947;-72
2022/12/10 08:57:58;;;;;;;11.20;4.00;;;;;;;7.13;87.28;99035.67;24534;1326;3050823;-74
2022/12/10 09:00:27;;;;;;;7.20;4.10;;;;;;;7.63;86.94;99025.13;24593;1325;3028371;-73
2022/12/10 09:02:57;;;;;;;8.00;4.80;;;;;;;8.25;84.03;99015.35;24525;1333;3052393;-72
2022/12/10 09:05:26;;;;;;;9.50;5.40;;;;;;;8.33;83.13;99009.86;24545;1332;3027626;-72
2022/12/10 09:07:55;;;;;;;12.90;6.40;;;;;;;8.18;83.42;99016.64;24551;1326;3052815;-73
2022/12/10 09:10:24;;;;;;;15.20;7.60;;;;;;;8.01;83.93;99010.63;24533;1326;3028115;-73
2022/12/10 09:12:54;;;;;;;13.90;6.90;;;;;;;8.01;83.63;99004.39;24529;1325;3056967;-72
2022/12/10 09:15:23;;;;;;;15.60;8.00;;;;;;;7.68;84.93;98999.95;24535;1326;3028702;-74
2022/12/10 09:17:52;;;;;;;8.50;4.40;;;;;;;7.49;86.22;98997.35;24516;1334;3049302;-72
2022/12/10 09:20:21;;;;;;;8.40;4.40;;;;;;;7.89;85.55;98995.29;24568;1333;3026773;-72
2022/12/10 09:22:50;;;;;;;10.10;4.90;;;;;;;8.53;83.26;98980.47;24487;1331;3067939;-70
2022/12/10 09:25:21;;;;;;;12.70;6.40;;;;;;;8.54;82.27;98977.58;24571;1326;3026090;-73
2022/12/10 09:27:50;;;;;;;12.60;7.20;;;;;;;8.09;83.70;98978.64;24556;1342;3049160;-73
2022/12/10 09:30:24;;;;;;;10.90;6.40;;;;;;;7.91;85.46;98969.73;24588;1325;3069382;-75
2022/12/10 09:32:53;;;;;;;13.20;7.00;;;;;;;7.90;85.70;98957.57;24576;1325;3026211;-74
2022/12/10 09:35:23;;;;;;;11.20;5.90;;;;;;;7.85;85.99;98945.49;24629;1325;3049940;-72
2022/12/10 09:37:52;;;;;;;8.10;3.50;;;;;;;7.67;87.15;98946.31;24539;1326;3026167;-70
2022/12/10 09:40:32;;;;;;;7.10;4.00;;;;;;;8.18;86.07;98939.38;24570;1333;3051979;-71
2022/12/10 09:43:12;;;;;;;7.20;3.90;;;;;;;8.59;83.64;98937.14;24532;1336;3048885;-71
2022/12/10 09:45:59;;;;;;;6.90;4.20;;;;;;;8.82;82.90;98933.14;24516;1322;3068433;-71
2022/12/10 09:48:43;;;;;;;10.20;5.90;;;;;;;8.58;83.20;98945.39;24553;1326;3051603;-72
2022/12/10 09:51:22;;;;;;;8.80;5.50;;;;;;;8.36;84.06;98951.56;24548;1334;3056234;-71
2022/12/10 09:53:58;;;;;;;10.10;5.60;;;;;;;8.00;85.75;98956.48;24555;1332;3052766;-72
2022/12/10 09:56:39;;;;;;;7.00;3.40;;;;;;;7.84;87.03;98950.23;24601;1333;3052579;-72
2022/12/10 09:59:39;;;;;;;6.80;4.20;;;;;;;8.43;85.57;98941.41;24554;1333;3049999;-74
2022/12/10 10:02:24;;;;;;;9.90;4.40;;;;;;;8.65;84.20;98929.24;24558;1325;3051696;-74
2022/12/10 10:05:05;;;;;;;7.20;4.30;;;;;;;8.69;84.10;98922.04;24587;1318;3048396;-73
2022/12/10 10:07:42;;;;;;;8.60;5.50;;;;;;;8.46;84.60;98922.05;24580;1332;3069387;-72
2022/12/10 10:10:23;;;;;;;8.00;4.70;;;;;;;8.22;85.48;98924.30;24600;1333;3049081;-72
2022/12/10 10:13:11;;;;;;;11.00;6.00;;;;;;;8.03;86.59;98927.88;24589;1326;3054766;-72
2022/12/10 10:15:43;;;;;;;7.00;3.80;;;;;;;7.91;87.74;98930.14;24561;1327;3052775;-71
2022/12/10 10:18:21;;;;;;;5.60;3.70;;;;;;;8.33;87.28;98920.01;24569;1327;3025363;-72
2022/12/10 10:20:50;;;;;;;7.00;4.20;;;;;;;8.63;85.50;98903.04;24543;1333;3051338;-74
2022/12/10 10:23:20;;;;;;;7.50;4.40;;;;;;;8.66;85.74;98901.80;24520;1328;3026768;-73
2022/12/10 10:25:49;;;;;;;9.70;5.60;;;;;;;8.68;85.31;98895.72;24501;1338;3052716;-73
2022/12/10 10:28:22;;;;;;;10.30;5.50;;;;;;;8.44;86.01;98906.09;24496;1335;3026092;-73
2022/12/10 10:30:52;;;;;;;12.30;6.30;;;;;;;8.11;87.46;98910.13;24576;1324;3028227;-72
2022/12/10 10:33:20;;;;;;;7.00;4.00;;;;;;;8.01;88.38;98902.35;24567;1328;3026784;-68
2022/12/10 10:35:56;;;;;;;12.00;5.10;;;;;;;8.45;87.86;98893.63;24524;1324;3027090;-69
2022/12/10 10:38:27;;;;;;;8.70;5.10;;;;;;;8.91;85.71;98887.15;24515;1334;3052484;-68
2022/12/10 10:40:57;;;;;;;13.30;5.90;;;;;;;8.98;85.21;98887.42;24518;1333;3025936;-71
2022/12/10 10:43:31;;;;;;;9.80;5.80;;;;;;;8.70;85.86;98887.91;24564;1332;3026576;-71
2022/12/10 10:46:05;;;;;;;12.50;6.30;;;;;;;8.56;86.79;98891.59;24557;1325;3049663;-71
2022/12/10 10:48:34;;;;;;;11.60;5.80;;;;;;;8.29;88.51;98897.89;24521;1327;3056598;-74
2022/12/10 10:51:11;;;;;;;6.90;3.50;;;;;;;8.17;89.91;98888.33;24508;1336;3025238;-75
2022/12/10 10:53:44;;;;;;;6.00;3.50;;;;;;;8.89;88.32;98870.35;24542;1338;3053973;-73
2022/12/10 10:56:44;;;;;;;8.90;4.80;;;;;;;9.30;85.58;98858.49;24573;1324;3052716;-73
2022/12/10 10:59:17;;;;;;;11.10;5.60;;;;;;;9.10;85.75;98856.92;24551;1332;3052762;-67
2022/12/10 11:01:47;;;;;;;12.70;6.40;;;;;;;8.89;86.55;98857.92;24512;1332;3026542;-66
2022/12/10 11:04:23;;;;;;;10.30;6.00;;;;;;;8.64;87.82;98864.02;24503;1332;3027730;-68
2022/12/10 11:06:54;;;;;;;12.50;6.30;;;;;;;8.38;89.61;98875.86;24537;1333;3049594;-72
2022/12/10 11:09:29;;;;;;;9.30;4.40;;;;;;;8.23;91.30;98883.43;24592;1332;3026460;-72
2022/12/10 11:12:05;;;;;;;7.80;5.00;;;;;;;8.72;90.28;98870.82;24539;1332;3052017;-71
2022/12/10 11:14:41;;;;;;;10.40;5.50;;;;;;;9.16;88.26;98862.15;24608;1325;3052667;-74
2022/12/10 11:17:10;;;;;;;10.80;5.80;;;;;;;9.20;87.38;98858.77;24564;1325;3051350;-69
2022/12/10 11:20:00;;;;;;;14.90;7.90;;;;;;;9.10;87.63;98855.92;24559;1333;3026218;-65
2022/12/10 11:22:32;;;;;;;20.40;9.30;;;;;;;8.73;89.50;98858.91;24616;1315;3055444;-68
2022/12/10 11:25:53;;;;;;;9.50;4.70;;;;;;;8.58;91.30;98857.62;24619;1324;3051594;-69
2022/12/10 11:28:57;;;;;;;13.00;5.80;;;;;;;9.19;89.43;98846.23;24562;1323;3054008;-69
2022/12/10 11:31:37;;;;;;;9.70;5.50;;;;;;;9.52;87.19;98838.14;24574;1337;3049280;-69
2022/12/10 11:34:16;;;;;;;9.70;6.20;;;;;;;9.36;87.68;98833.27;24650;1324;3068053;-67
2022/12/10 11:37:01;;;;;;;12.90;7.30;;;;;;;9.01;89.17;98836.02;24593;1330;3049617;-70
2022/12/10 11:39:42;;;;;;;16.50;7.90;;;;;;;8.94;90.51;98837.56;24539;1323;3057304;-69
2022/12/10 11:42:29;;;;;;;12.10;5.40;;;;;;;8.84;91.45;98833.13;24722;1323;3053030;-69
2022/12/10 11:45:23;;;;;;;13.60;6.10;;;;;;;9.48;89.79;98822.34;24529;1330;3053507;-70
2022/12/10 11:48:08;;;;;;;11.50;6.70;;;;;;;9.96;86.49;98815.58;24654;1325;3051267;-68
2022/12/10 11:50:45;;;;;;;14.30;6.60;;;;;;;9.62;87.15;98817.55;24701;1322;3053054;-67
2022/12/10 11:53:33;;;;;;;15.60;6.80;;;;;;;9.48;88.06;98814.10;24576;1323;3048722;-68
2022/12/10 11:56:40;;;;;;;10.00;5.70;;;;;;;9.24;89.73;98812.89;24611;1323;3071132;-67
2022/12/10 11:59:40;;;;;;;7.30;3.80;;;;;;;9.19;90.49;98810.59;24528;1330;3052709;-68